sensor_id;sensor_type;location;lat;lon;timestamp;pressure;altitude;pressure_sealevel;temperature;humidity
58879;BME280;44660;42.664;23.266;2023-03-21T00:01:12;94311.13;;;10.82;48.05
58879;BME280;44660;42.664;23.266;2023-03-21T00:03:38;94387.78;;;11.34;48.02
58879;BME280;44660;42.664;23.266;2023-03-21T00:06:05;94367.72;;;11.21;47.93
58879;BME280;44660;42.664;23.266;2023-03-21T00:08:30;94371.16;;;11.22;48.45
58879;BME280;44660;42.664;23.266;2023-03-21T00:10:57;94380.75;;;11.23;48.59
58879;BME280;44660;42.664;23.266;2023-03-21T00:13:24;94385.03;;;11.24;48.81
58879;BME280;44660;42.664;23.266;2023-03-21T00:15:51;94389.22;;;11.20;48.66
58879;BME280;44660;42.664;23.266;2023-03-21T00:18:22;94374.75;;;11.10;48.72
58879;BME280;44660;42.664;23.266;2023-03-21T00:21:16;94370.63;;;10.98;48.97
58879;BME280;44660;42.664;23.266;2023-03-21T00:23:42;94357.47;;;10.86;49.00
58879;BME280;44660;42.664;23.266;2023-03-21T00:26:08;94382.59;;;10.95;48.97
58879;BME280;44660;42.664;23.266;2023-03-21T00:28:38;94367.81;;;10.82;49.32
58879;BME280;44660;42.664;23.266;2023-03-21T00:31:04;94374.19;;;10.81;49.52
58879;BME280;44660;42.664;23.266;2023-03-21T00:33:30;94376.03;;;10.81;49.62
58879;BME280;44660;42.664;23.266;2023-03-21T00:35:56;94381.41;;;10.86;49.50
58879;BME280;44660;42.664;23.266;2023-03-21T00:38:23;94365.56;;;10.74;49.99
58879;BME280;44660;42.664;23.266;2023-03-21T00:40:49;94360.44;;;10.67;49.84
58879;BME280;44660;42.664;23.266;2023-03-21T00:43:15;94376.09;;;10.86;49.99
58879;BME280;44660;42.664;23.266;2023-03-21T00:45:44;94368.84;;;10.81;49.55
58879;BME280;44660;42.664;23.266;2023-03-21T00:48:10;94339.06;;;10.57;49.56
58879;BME280;44660;42.664;23.266;2023-03-21T00:50:36;94368.00;;;10.75;49.62
58879;BME280;44660;42.664;23.266;2023-03-21T00:53:03;94362.72;;;10.58;49.86
58879;BME280;44660;42.664;23.266;2023-03-21T00:55:29;94362.91;;;10.52;50.28
58879;BME280;44660;42.664;23.266;2023-03-21T00:57:54;94362.28;;;10.44;50.33
58879;BME280;44660;42.664;23.266;2023-03-21T01:00:20;94335.34;;;10.19;50.61
58879;BME280;44660;42.664;23.266;2023-03-21T01:02:46;94370.81;;;10.47;50.80
58879;BME280;44660;42.664;23.266;2023-03-21T01:05:26;94341.28;;;10.26;50.68
58879;BME280;44660;42.664;23.266;2023-03-21T01:08:14;94320.63;;;10.11;51.14
58879;BME280;44660;42.664;23.266;2023-03-21T01:10:41;94362.22;;;10.39;51.19
58879;BME280;44660;42.664;23.266;2023-03-21T01:13:08;94338.47;;;10.16;51.05
58879;BME280;44660;42.664;23.266;2023-03-21T01:15:35;94348.25;;;10.32;50.63
58879;BME280;44660;42.664;23.266;2023-03-21T01:18:01;94343.44;;;10.29;50.73
58879;BME280;44660;42.664;23.266;2023-03-21T01:20:27;94345.25;;;10.23;51.17
58879;BME280;44660;42.664;23.266;2023-03-21T01:22:53;94356.34;;;10.20;51.11
58879;BME280;44660;42.664;23.266;2023-03-21T01:25:18;94360.88;;;10.20;51.54
58879;BME280;44660;42.664;23.266;2023-03-21T01:27:44;94367.88;;;10.26;51.95
58879;BME280;44660;42.664;23.266;2023-03-21T01:30:10;94344.78;;;10.09;51.78
58879;BME280;44660;42.664;23.266;2023-03-21T01:32:35;94361.84;;;10.13;51.71
58879;BME280;44660;42.664;23.266;2023-03-21T01:35:01;94348.16;;;10.05;51.52
58879;BME280;44660;42.664;23.266;2023-03-21T01:37:26;94355.72;;;10.13;51.69
58879;BME280;44660;42.664;23.266;2023-03-21T01:39:52;94370.75;;;10.24;51.46
58879;BME280;44660;42.664;23.266;2023-03-21T01:42:18;94340.44;;;10.03;51.76
58879;BME280;44660;42.664;23.266;2023-03-21T01:47:54;94367.94;;;10.14;51.78
58879;BME280;44660;42.664;23.266;2023-03-21T01:50:19;94364.28;;;9.98;52.32
58879;BME280;44660;42.664;23.266;2023-03-21T01:52:48;94342.84;;;9.88;52.37
58879;BME280;44660;42.664;23.266;2023-03-21T01:55:15;94353.66;;;9.98;52.44
58879;BME280;44660;42.664;23.266;2023-03-21T01:57:45;94348.50;;;9.91;52.40
58879;BME280;44660;42.664;23.266;2023-03-21T02:00:14;94344.47;;;9.89;52.50
58879;BME280;44660;42.664;23.266;2023-03-21T02:02:43;94360.25;;;9.78;52.71
58879;BME280;44660;42.664;23.266;2023-03-21T02:05:23;94343.28;;;9.62;52.69
58879;BME280;44660;42.664;23.266;2023-03-21T02:07:52;94364.78;;;9.78;52.34
58879;BME280;44660;42.664;23.266;2023-03-21T02:10:18;94336.75;;;9.53;52.14
58879;BME280;44660;42.664;23.266;2023-03-21T02:12:44;94327.34;;;9.45;52.04
58879;BME280;44660;42.664;23.266;2023-03-21T02:15:10;94349.81;;;9.72;51.81
58879;BME280;44660;42.664;23.266;2023-03-21T02:20:51;94342.88;;;9.71;52.38
58879;BME280;44660;42.664;23.266;2023-03-21T02:23:36;94353.75;;;9.69;52.55
58879;BME280;44660;42.664;23.266;2023-03-21T02:26:24;94351.56;;;9.66;52.46
58879;BME280;44660;42.664;23.266;2023-03-21T02:29:07;94315.13;;;9.44;52.38
58879;BME280;44660;42.664;23.266;2023-03-21T02:34:16;94344.00;;;9.58;52.19
58879;BME280;44660;42.664;23.266;2023-03-21T02:36:53;94347.25;;;9.60;52.48
58879;BME280;44660;42.664;23.266;2023-03-21T02:47:13;94334.69;;;9.55;53.73
58879;BME280;44660;42.664;23.266;2023-03-21T02:49:46;94336.69;;;9.48;53.24
58879;BME280;44660;42.664;23.266;2023-03-21T02:52:17;94327.25;;;9.40;53.48
58879;BME280;44660;42.664;23.266;2023-03-21T02:54:45;94339.31;;;9.31;53.71
58879;BME280;44660;42.664;23.266;2023-03-21T02:57:13;94316.78;;;9.17;53.77
58879;BME280;44660;42.664;23.266;2023-03-21T02:59:41;94314.38;;;9.15;53.49
58879;BME280;44660;42.664;23.266;2023-03-21T03:02:07;94328.06;;;9.24;53.50
58879;BME280;44660;42.664;23.266;2023-03-21T03:04:32;94341.91;;;9.26;53.18
58879;BME280;44660;42.664;23.266;2023-03-21T03:12:06;94296.41;;;8.59;53.61
58879;BME280;44660;42.664;23.266;2023-03-21T03:15:23;94335.56;;;8.69;53.45
58879;BME280;44660;42.664;23.266;2023-03-21T03:17:53;94354.50;;;8.90;53.60
58879;BME280;44660;42.664;23.266;2023-03-21T03:25:39;94331.28;;;8.68;54.01
58879;BME280;44660;42.664;23.266;2023-03-21T03:28:08;94344.53;;;8.80;54.15
58879;BME280;44660;42.664;23.266;2023-03-21T03:30:35;94347.47;;;8.95;54.60
58879;BME280;44660;42.664;23.266;2023-03-21T03:33:02;94355.66;;;8.94;54.46
58879;BME280;44660;42.664;23.266;2023-03-21T03:35:31;94360.75;;;8.83;54.79
58879;BME280;44660;42.664;23.266;2023-03-21T03:37:59;94347.88;;;8.75;54.27
58879;BME280;44660;42.664;23.266;2023-03-21T03:40:30;94352.59;;;8.73;54.39
58879;BME280;44660;42.664;23.266;2023-03-21T03:43:04;94325.34;;;8.37;54.84
58879;BME280;44660;42.664;23.266;2023-03-21T03:45:34;94355.19;;;8.56;54.81
58879;BME280;44660;42.664;23.266;2023-03-21T03:50:39;94359.31;;;8.64;54.58
58879;BME280;44660;42.664;23.266;2023-03-21T03:53:19;94347.47;;;8.55;54.64
58879;BME280;44660;42.664;23.266;2023-03-21T03:55:48;94359.22;;;8.59;54.89
58879;BME280;44660;42.664;23.266;2023-03-21T03:58:18;94339.16;;;8.39;55.00
58879;BME280;44660;42.664;23.266;2023-03-21T04:00:45;94349.44;;;8.47;54.98
58879;BME280;44660;42.664;23.266;2023-03-21T04:03:10;94349.53;;;8.53;55.04
58879;BME280;44660;42.664;23.266;2023-03-21T04:05:36;94271.19;;;8.04;55.08
58879;BME280;44660;42.664;23.266;2023-03-21T04:08:02;94334.56;;;8.46;55.45
58879;BME280;44660;42.664;23.266;2023-03-21T04:10:27;94337.66;;;8.55;55.38
58879;BME280;44660;42.664;23.266;2023-03-21T04:12:53;94332.72;;;8.59;55.38
58879;BME280;44660;42.664;23.266;2023-03-21T04:15:19;94348.72;;;8.64;55.81
58879;BME280;44660;42.664;23.266;2023-03-21T04:17:45;94343.66;;;8.62;55.76
58879;BME280;44660;42.664;23.266;2023-03-21T04:20:10;94312.09;;;8.49;55.79
58879;BME280;44660;42.664;23.266;2023-03-21T04:22:36;94337.31;;;8.52;56.10
58879;BME280;44660;42.664;23.266;2023-03-21T04:25:02;94317.41;;;8.37;56.22
58879;BME280;44660;42.664;23.266;2023-03-21T04:27:29;94311.19;;;8.31;56.10
58879;BME280;44660;42.664;23.266;2023-03-21T04:29:55;94338.38;;;8.50;56.10
58879;BME280;44660;42.664;23.266;2023-03-21T04:32:21;94263.47;;;7.91;56.19
58879;BME280;44660;42.664;23.266;2023-03-21T04:34:48;94354.75;;;8.36;55.95
58879;BME280;44660;42.664;23.266;2023-03-21T04:37:18;94313.31;;;8.06;56.14
58879;BME280;44660;42.664;23.266;2023-03-21T04:39:44;94327.13;;;8.08;56.20
58879;BME280;44660;42.664;23.266;2023-03-21T04:42:12;94339.31;;;8.21;56.23
58879;BME280;44660;42.664;23.266;2023-03-21T04:44:40;94354.28;;;8.27;56.65
58879;BME280;44660;42.664;23.266;2023-03-21T04:47:06;94341.06;;;8.03;56.95
58879;BME280;44660;42.664;23.266;2023-03-21T04:49:32;94339.91;;;7.99;57.39
58879;BME280;44660;42.664;23.266;2023-03-21T04:51:57;94343.13;;;8.01;57.59
58879;BME280;44660;42.664;23.266;2023-03-21T04:54:23;94334.63;;;7.99;57.36
58879;BME280;44660;42.664;23.266;2023-03-21T04:56:49;94359.72;;;8.08;57.58
58879;BME280;44660;42.664;23.266;2023-03-21T04:59:16;94357.41;;;8.12;57.28
58879;BME280;44660;42.664;23.266;2023-03-21T05:01:42;94290.53;;;7.69;57.19
58879;BME280;44660;42.664;23.266;2023-03-21T05:04:10;94361.22;;;8.04;57.29
58879;BME280;44660;42.664;23.266;2023-03-21T05:06:36;94319.06;;;7.91;57.31
58879;BME280;44660;42.664;23.266;2023-03-21T05:09:03;94355.31;;;8.26;57.03
58879;BME280;44660;42.664;23.266;2023-03-21T05:11:30;94334.13;;;8.26;57.05
58879;BME280;44660;42.664;23.266;2023-03-21T05:13:57;94358.88;;;8.55;57.19
58879;BME280;44660;42.664;23.266;2023-03-21T05:16:23;94294.44;;;8.14;57.08
58879;BME280;44660;42.664;23.266;2023-03-21T05:18:52;94341.94;;;8.44;56.96
58879;BME280;44660;42.664;23.266;2023-03-21T05:21:19;94362.91;;;8.58;56.96
58879;BME280;44660;42.664;23.266;2023-03-21T05:23:45;94337.00;;;8.36;57.11
58879;BME280;44660;42.664;23.266;2023-03-21T05:26:19;94352.44;;;8.51;57.30
58879;BME280;44660;42.664;23.266;2023-03-21T05:28:45;94310.88;;;8.28;57.29
58879;BME280;44660;42.664;23.266;2023-03-21T05:31:13;94351.34;;;8.64;57.21
58879;BME280;44660;42.664;23.266;2023-03-21T05:33:41;94363.19;;;8.85;56.77
58879;BME280;44660;42.664;23.266;2023-03-21T05:36:07;94362.00;;;8.93;56.18
58879;BME280;44660;42.664;23.266;2023-03-21T05:38:33;94363.69;;;8.99;56.13
58879;BME280;44660;42.664;23.266;2023-03-21T05:40:58;94293.06;;;8.64;56.04
58879;BME280;44660;42.664;23.266;2023-03-21T05:43:24;94332.44;;;9.01;55.90
58879;BME280;44660;42.664;23.266;2023-03-21T05:45:50;94338.34;;;9.20;55.90
58879;BME280;44660;42.664;23.266;2023-03-21T05:48:16;94354.47;;;9.47;55.97
58879;BME280;44660;42.664;23.266;2023-03-21T05:50:42;94356.78;;;9.61;55.98
58879;BME280;44660;42.664;23.266;2023-03-21T05:53:07;94338.78;;;9.63;55.70
58879;BME280;44660;42.664;23.266;2023-03-21T05:55:33;94344.25;;;9.73;55.27
58879;BME280;44660;42.664;23.266;2023-03-21T05:57:59;94349.16;;;9.82;55.31
58879;BME280;44660;42.664;23.266;2023-03-21T06:00:24;94305.88;;;9.64;55.38
58879;BME280;44660;42.664;23.266;2023-03-21T06:02:50;94340.31;;;9.93;55.14
58879;BME280;44660;42.664;23.266;2023-03-21T06:05:15;94303.44;;;9.79;55.05
58879;BME280;44660;42.664;23.266;2023-03-21T06:07:41;94335.47;;;10.07;55.26
58879;BME280;44660;42.664;23.266;2023-03-21T06:10:07;94239.31;;;9.48;55.06
58879;BME280;44660;42.664;23.266;2023-03-21T06:12:35;94333.53;;;10.24;55.08
58879;BME280;44660;42.664;23.266;2023-03-21T06:15:02;94268.81;;;9.91;55.07
58879;BME280;44660;42.664;23.266;2023-03-21T06:17:29;94316.56;;;10.25;55.23
58879;BME280;44660;42.664;23.266;2023-03-21T06:19:55;94291.41;;;10.33;55.58
58879;BME280;44660;42.664;23.266;2023-03-21T06:22:21;94304.97;;;10.54;55.00
58879;BME280;44660;42.664;23.266;2023-03-21T06:24:46;94308.88;;;10.68;54.26
58879;BME280;44660;42.664;23.266;2023-03-21T06:27:12;94315.97;;;10.85;53.77
58879;BME280;44660;42.664;23.266;2023-03-21T06:29:38;94315.13;;;11.06;53.34
58879;BME280;44660;42.664;23.266;2023-03-21T06:32:03;94302.56;;;11.02;52.93
58879;BME280;44660;42.664;23.266;2023-03-21T06:34:29;94269.25;;;10.94;52.96
58879;BME280;44660;42.664;23.266;2023-03-21T06:36:55;94315.75;;;11.14;52.93
58879;BME280;44660;42.664;23.266;2023-03-21T06:39:20;94318.09;;;11.42;52.80
58879;BME280;44660;42.664;23.266;2023-03-21T06:41:46;94322.03;;;11.62;52.46
58879;BME280;44660;42.664;23.266;2023-03-21T06:44:11;94284.81;;;11.40;52.34
58879;BME280;44660;42.664;23.266;2023-03-21T06:46:36;94338.47;;;11.59;51.91
58879;BME280;44660;42.664;23.266;2023-03-21T06:49:02;94340.53;;;11.84;51.54
58879;BME280;44660;42.664;23.266;2023-03-21T06:51:28;94337.53;;;12.03;52.24
58879;BME280;44660;42.664;23.266;2023-03-21T06:53:53;94294.38;;;11.68;50.25
58879;BME280;44660;42.664;23.266;2023-03-21T06:56:19;94301.47;;;11.95;49.41
58879;BME280;44660;42.664;23.266;2023-03-21T06:58:44;94333.72;;;12.36;48.57
58879;BME280;44660;42.664;23.266;2023-03-21T07:01:10;94349.91;;;12.72;47.95
58879;BME280;44660;42.664;23.266;2023-03-21T07:03:36;94305.59;;;12.66;46.93
58879;BME280;44660;42.664;23.266;2023-03-21T07:06:07;94342.53;;;13.05;45.62
58879;BME280;44660;42.664;23.266;2023-03-21T07:08:37;94331.34;;;13.19;45.17
58879;BME280;44660;42.664;23.266;2023-03-21T07:11:03;94319.09;;;13.23;44.75
58879;BME280;44660;42.664;23.266;2023-03-21T07:13:30;94311.66;;;13.41;44.30
58879;BME280;44660;42.664;23.266;2023-03-21T07:15:56;94342.13;;;13.70;43.66
58879;BME280;44660;42.664;23.266;2023-03-21T07:18:21;94339.97;;;13.62;43.39
58879;BME280;44660;42.664;23.266;2023-03-21T07:20:48;94341.06;;;13.66;42.84
58879;BME280;44660;42.664;23.266;2023-03-21T07:23:17;94341.31;;;13.65;42.54
58879;BME280;44660;42.664;23.266;2023-03-21T07:25:43;94344.53;;;13.51;42.45
58879;BME280;44660;42.664;23.266;2023-03-21T07:28:08;94300.19;;;13.40;42.41
58879;BME280;44660;42.664;23.266;2023-03-21T07:30:34;94196.25;;;12.77;42.27
58879;BME280;44660;42.664;23.266;2023-03-21T07:33:01;94334.38;;;13.59;43.23
58879;BME280;44660;42.664;23.266;2023-03-21T07:35:27;94346.91;;;13.74;43.15
58879;BME280;44660;42.664;23.266;2023-03-21T07:37:52;94335.16;;;13.80;42.82
58879;BME280;44660;42.664;23.266;2023-03-21T07:40:17;94349.06;;;14.02;43.57
58879;BME280;44660;42.664;23.266;2023-03-21T07:42:43;94348.50;;;14.31;43.15
58879;BME280;44660;42.664;23.266;2023-03-21T07:45:10;94344.69;;;14.53;42.37
58879;BME280;44660;42.664;23.266;2023-03-21T07:47:39;94336.63;;;14.68;42.04
58879;BME280;44660;42.664;23.266;2023-03-21T07:50:05;94342.25;;;14.62;42.93
58879;BME280;44660;42.664;23.266;2023-03-21T07:52:31;94348.41;;;14.67;42.05
58879;BME280;44660;42.664;23.266;2023-03-21T07:54:56;94340.66;;;14.71;41.49
58879;BME280;44660;42.664;23.266;2023-03-21T07:57:22;94349.16;;;14.83;40.71
58879;BME280;44660;42.664;23.266;2023-03-21T07:59:47;94332.28;;;14.93;40.57
58879;BME280;44660;42.664;23.266;2023-03-21T08:02:16;94325.31;;;14.92;40.22
58879;BME280;44660;42.664;23.266;2023-03-21T08:04:42;94344.31;;;14.96;39.80
58879;BME280;44660;42.664;23.266;2023-03-21T08:07:09;94349.41;;;14.92;40.08
58879;BME280;44660;42.664;23.266;2023-03-21T08:09:34;94315.16;;;14.84;39.80
58879;BME280;44660;42.664;23.266;2023-03-21T08:12:01;94324.75;;;14.95;39.80
58879;BME280;44660;42.664;23.266;2023-03-21T08:14:26;94334.50;;;15.26;39.51
58879;BME280;44660;42.664;23.266;2023-03-21T08:16:52;94319.69;;;15.39;39.09
58879;BME280;44660;42.664;23.266;2023-03-21T08:19:17;94312.44;;;15.44;38.14
58879;BME280;44660;42.664;23.266;2023-03-21T08:21:45;94319.78;;;15.23;38.03
58879;BME280;44660;42.664;23.266;2023-03-21T08:24:10;94293.56;;;15.20;38.20
58879;BME280;44660;42.664;23.266;2023-03-21T08:26:35;94298.19;;;15.49;37.72
58879;BME280;44660;42.664;23.266;2023-03-21T08:29:01;94325.47;;;15.91;36.92
58879;BME280;44660;42.664;23.266;2023-03-21T08:31:26;94337.16;;;15.71;36.77
58879;BME280;44660;42.664;23.266;2023-03-21T08:33:52;94312.69;;;15.82;37.11
58879;BME280;44660;42.664;23.266;2023-03-21T08:36:21;94328.84;;;16.07;36.39
58879;BME280;44660;42.664;23.266;2023-03-21T08:38:46;94323.56;;;15.96;35.99
58879;BME280;44660;42.664;23.266;2023-03-21T08:41:13;94329.69;;;16.02;35.97
58879;BME280;44660;42.664;23.266;2023-03-21T08:43:39;94324.50;;;16.11;36.31
58879;BME280;44660;42.664;23.266;2023-03-21T08:46:05;94328.38;;;15.99;36.45
58879;BME280;44660;42.664;23.266;2023-03-21T08:48:31;94287.56;;;15.73;36.16
58879;BME280;44660;42.664;23.266;2023-03-21T08:50:59;94269.25;;;15.51;35.76
58879;BME280;44660;42.664;23.266;2023-03-21T08:53:24;94285.06;;;15.82;36.05
58879;BME280;44660;42.664;23.266;2023-03-21T08:55:50;94314.91;;;16.05;35.77
58879;BME280;44660;42.664;23.266;2023-03-21T08:58:16;94318.03;;;16.17;35.14
58879;BME280;44660;42.664;23.266;2023-03-21T09:00:42;94307.88;;;16.14;35.26
58879;BME280;44660;42.664;23.266;2023-03-21T09:03:08;94220.53;;;15.44;35.64
58879;BME280;44660;42.664;23.266;2023-03-21T09:05:33;94311.19;;;16.00;35.17
58879;BME280;44660;42.664;23.266;2023-03-21T09:08:00;94313.88;;;16.00;35.36
58879;BME280;44660;42.664;23.266;2023-03-21T09:10:28;94312.28;;;15.99;35.86
58879;BME280;44660;42.664;23.266;2023-03-21T09:12:54;94314.81;;;16.15;35.72
58879;BME280;44660;42.664;23.266;2023-03-21T09:15:24;94312.66;;;16.17;35.90
58879;BME280;44660;42.664;23.266;2023-03-21T09:17:51;94311.03;;;16.16;35.94
58879;BME280;44660;42.664;23.266;2023-03-21T09:20:20;94293.78;;;15.98;35.68
58879;BME280;44660;42.664;23.266;2023-03-21T09:22:50;94307.53;;;16.21;35.40
58879;BME280;44660;42.664;23.266;2023-03-21T09:25:19;94261.50;;;16.08;35.51
58879;BME280;44660;42.664;23.266;2023-03-21T09:27:45;94172.75;;;15.56;36.24
58879;BME280;44660;42.664;23.266;2023-03-21T09:30:12;94277.06;;;16.36;35.59
58879;BME280;44660;42.664;23.266;2023-03-21T09:32:38;94259.59;;;16.14;36.21
58879;BME280;44660;42.664;23.266;2023-03-21T09:35:04;94274.63;;;16.39;36.29
58879;BME280;44660;42.664;23.266;2023-03-21T09:37:31;94269.97;;;16.45;36.30
58879;BME280;44660;42.664;23.266;2023-03-21T09:39:58;94260.25;;;16.49;36.10
58879;BME280;44660;42.664;23.266;2023-03-21T09:42:36;94244.81;;;16.41;36.01
58879;BME280;44660;42.664;23.266;2023-03-21T09:47:55;94267.69;;;16.57;35.96
58879;BME280;44660;42.664;23.266;2023-03-21T09:50:33;94251.84;;;16.37;36.02
58879;BME280;44660;42.664;23.266;2023-03-21T09:53:22;94246.19;;;16.38;36.29
58879;BME280;44660;42.664;23.266;2023-03-21T09:55:50;94262.50;;;16.42;36.87
58879;BME280;44660;42.664;23.266;2023-03-21T10:03:35;94258.09;;;16.51;36.62
58879;BME280;44660;42.664;23.266;2023-03-21T10:06:10;94230.56;;;16.64;35.88
58879;BME280;44660;42.664;23.266;2023-03-21T10:08:43;94226.97;;;16.93;35.13
58879;BME280;44660;42.664;23.266;2023-03-21T10:11:21;94252.31;;;17.91;34.44
58879;BME280;44660;42.664;23.266;2023-03-21T10:17:00;94221.63;;;19.86;30.62
58879;BME280;44660;42.664;23.266;2023-03-21T10:19:29;94211.44;;;20.63;29.24
58879;BME280;44660;42.664;23.266;2023-03-21T10:21:55;94210.09;;;21.36;27.47
58879;BME280;44660;42.664;23.266;2023-03-21T10:24:24;94210.03;;;21.89;26.84
58879;BME280;44660;42.664;23.266;2023-03-21T10:26:50;94228.72;;;22.29;26.40
58879;BME280;44660;42.664;23.266;2023-03-21T10:29:17;94201.78;;;22.32;26.53
58879;BME280;44660;42.664;23.266;2023-03-21T10:31:46;94214.56;;;22.62;26.07
58879;BME280;44660;42.664;23.266;2023-03-21T10:34:27;94225.16;;;21.98;26.86
58879;BME280;44660;42.664;23.266;2023-03-21T10:36:55;94224.22;;;21.85;26.41
58879;BME280;44660;42.664;23.266;2023-03-21T10:39:33;94235.91;;;22.25;25.72
58879;BME280;44660;42.664;23.266;2023-03-21T10:41:59;94226.19;;;22.24;24.57
58879;BME280;44660;42.664;23.266;2023-03-21T10:44:33;94223.50;;;22.15;24.17
58879;BME280;44660;42.664;23.266;2023-03-21T10:47:07;94228.41;;;22.22;24.68
58879;BME280;44660;42.664;23.266;2023-03-21T10:49:36;94205.78;;;22.26;24.11
58879;BME280;44660;42.664;23.266;2023-03-21T10:52:04;94230.13;;;22.35;24.58
58879;BME280;44660;42.664;23.266;2023-03-21T10:54:32;94215.00;;;21.87;25.02
58879;BME280;44660;42.664;23.266;2023-03-21T10:59:27;94167.81;;;21.23;26.31
58879;BME280;44660;42.664;23.266;2023-03-21T11:01:57;94144.28;;;20.97;25.75
58879;BME280;44660;42.664;23.266;2023-03-21T11:04:25;94204.38;;;21.37;25.86
58879;BME280;44660;42.664;23.266;2023-03-21T11:06:56;94197.09;;;21.20;26.82
58879;BME280;44660;42.664;23.266;2023-03-21T11:09:25;94205.59;;;20.70;27.57
58879;BME280;44660;42.664;23.266;2023-03-21T11:12:03;94191.31;;;20.78;27.10
58879;BME280;44660;42.664;23.266;2023-03-21T11:14:38;94194.72;;;20.03;27.59
58879;BME280;44660;42.664;23.266;2023-03-21T11:19:52;94197.59;;;20.47;27.29
58879;BME280;44660;42.664;23.266;2023-03-21T11:22:20;94191.69;;;20.45;27.57
58879;BME280;44660;42.664;23.266;2023-03-21T11:24:52;94142.53;;;19.77;28.01
58879;BME280;44660;42.664;23.266;2023-03-21T11:27:18;94161.34;;;19.90;27.96
58879;BME280;44660;42.664;23.266;2023-03-21T11:29:47;94158.19;;;19.66;28.47
58879;BME280;44660;42.664;23.266;2023-03-21T11:32:29;94173.22;;;19.89;28.57
58879;BME280;44660;42.664;23.266;2023-03-21T11:37:39;94134.50;;;19.85;28.26
58879;BME280;44660;42.664;23.266;2023-03-21T11:42:54;94166.31;;;20.06;27.89
58879;BME280;44660;42.664;23.266;2023-03-21T11:45:25;94164.84;;;19.91;27.38
58879;BME280;44660;42.664;23.266;2023-03-21T11:47:53;94149.25;;;19.88;27.64
58879;BME280;44660;42.664;23.266;2023-03-21T12:06:34;94131.56;;;19.73;27.23
58879;BME280;44660;42.664;23.266;2023-03-21T12:11:40;94143.50;;;19.49;27.55
58879;BME280;44660;42.664;23.266;2023-03-21T12:14:21;94119.97;;;19.41;27.96
58879;BME280;44660;42.664;23.266;2023-03-21T12:19:56;94132.22;;;19.47;28.01
58879;BME280;44660;42.664;23.266;2023-03-21T12:25:15;94118.00;;;19.01;27.95
58879;BME280;44660;42.664;23.266;2023-03-21T12:41:19;94108.38;;;19.09;28.34
58879;BME280;44660;42.664;23.266;2023-03-21T12:43:54;94118.72;;;19.16;28.30
58879;BME280;44660;42.664;23.266;2023-03-21T12:46:26;94118.38;;;19.08;28.38
58879;BME280;44660;42.664;23.266;2023-03-21T12:49:00;94098.00;;;18.80;28.51
58879;BME280;44660;42.664;23.266;2023-03-21T12:51:33;94101.19;;;18.82;28.99
58879;BME280;44660;42.664;23.266;2023-03-21T12:54:06;94100.66;;;18.93;28.58
58879;BME280;44660;42.664;23.266;2023-03-21T12:56:38;94097.09;;;19.07;28.35
58879;BME280;44660;42.664;23.266;2023-03-21T12:59:26;94092.41;;;19.13;27.52
58879;BME280;44660;42.664;23.266;2023-03-21T13:01:59;94080.53;;;19.14;27.77
58879;BME280;44660;42.664;23.266;2023-03-21T13:07:02;94084.06;;;19.00;27.94
58879;BME280;44660;42.664;23.266;2023-03-21T13:09:38;94076.91;;;18.96;28.38
58879;BME280;44660;42.664;23.266;2023-03-21T13:17:49;94072.94;;;18.20;28.89
58879;BME280;44660;42.664;23.266;2023-03-21T13:20:25;94071.84;;;18.35;29.26
58879;BME280;44660;42.664;23.266;2023-03-21T13:22:53;94066.34;;;18.40;28.93
58879;BME280;44660;42.664;23.266;2023-03-21T13:25:23;94053.63;;;18.04;29.67
58879;BME280;44660;42.664;23.266;2023-03-21T13:28:03;94001.47;;;17.77;29.63
58879;BME280;44660;42.664;23.266;2023-03-21T13:30:30;94055.41;;;18.22;29.34
58879;BME280;44660;42.664;23.266;2023-03-21T13:33:09;94043.50;;;18.01;29.58
58879;BME280;44660;42.664;23.266;2023-03-21T13:35:38;94017.19;;;17.56;29.61
58879;BME280;44660;42.664;23.266;2023-03-21T13:38:15;94044.47;;;18.05;29.66
58879;BME280;44660;42.664;23.266;2023-03-21T13:41:10;94033.50;;;17.87;29.90
58879;BME280;44660;42.664;23.266;2023-03-21T13:46:34;94050.25;;;17.84;30.24
58879;BME280;44660;42.664;23.266;2023-03-21T13:49:12;94019.88;;;17.42;30.34
58879;BME280;44660;42.664;23.266;2023-03-21T13:51:52;94055.03;;;17.45;30.87
58879;BME280;44660;42.664;23.266;2023-03-21T13:54:27;94047.16;;;17.35;31.35
58879;BME280;44660;42.664;23.266;2023-03-21T13:56:58;94052.22;;;17.37;30.91
58879;BME280;44660;42.664;23.266;2023-03-21T13:59:42;94043.69;;;17.35;31.40
58879;BME280;44660;42.664;23.266;2023-03-21T14:04:38;94042.19;;;17.28;31.50
58879;BME280;44660;42.664;23.266;2023-03-21T14:07:07;94043.25;;;17.13;31.79
58879;BME280;44660;42.664;23.266;2023-03-21T14:09:37;94040.16;;;17.20;31.79
58879;BME280;44660;42.664;23.266;2023-03-21T14:12:07;94044.56;;;17.30;31.89
58879;BME280;44660;42.664;23.266;2023-03-21T14:14:45;94022.97;;;17.21;32.03
58879;BME280;44660;42.664;23.266;2023-03-21T14:17:20;94046.59;;;17.38;32.24
58879;BME280;44660;42.664;23.266;2023-03-21T14:19:51;94038.31;;;17.35;32.29
58879;BME280;44660;42.664;23.266;2023-03-21T14:22:17;94027.34;;;17.17;32.46
58879;BME280;44660;42.664;23.266;2023-03-21T14:24:47;94034.41;;;17.13;32.69
58879;BME280;44660;42.664;23.266;2023-03-21T14:27:13;94041.28;;;17.19;32.77
58879;BME280;44660;42.664;23.266;2023-03-21T14:29:39;94033.03;;;17.16;32.79
58879;BME280;44660;42.664;23.266;2023-03-21T14:32:06;94019.19;;;17.08;33.31
58879;BME280;44660;42.664;23.266;2023-03-21T14:34:42;94036.06;;;17.09;33.59
58879;BME280;44660;42.664;23.266;2023-03-21T14:37:10;94039.03;;;16.93;33.38
58879;BME280;44660;42.664;23.266;2023-03-21T14:39:35;94005.97;;;16.79;34.21
58879;BME280;44660;42.664;23.266;2023-03-21T14:42:06;94026.34;;;16.80;34.81
58879;BME280;44660;42.664;23.266;2023-03-21T14:44:42;94036.88;;;16.76;35.32